createdAt,value
2022-08-27T00:01:04.559Z,19.30
2022-08-27T00:06:14.330Z,22.15
2022-08-27T00:11:17.927Z,17.95
2022-08-27T00:16:20.954Z,14.77
2022-08-27T00:26:25.546Z,16.42
2022-08-27T00:31:28.056Z,13.38
2022-08-27T00:36:31.095Z,16.70
2022-08-27T00:41:33.592Z,13.20
2022-08-27T00:46:49.806Z,14.15
2022-08-27T00:52:07.458Z,15.52
2022-08-27T00:57:09.757Z,15.60
2022-08-27T01:02:21.296Z,15.17
2022-08-27T01:07:25.446Z,18.17
2022-08-27T01:12:32.063Z,14.57
2022-08-27T01:17:34.891Z,13.13
2022-08-27T01:22:56.166Z,13.80
2022-08-27T01:28:00.673Z,14.52
2022-08-27T01:33:10.339Z,16.20
2022-08-27T01:38:18.886Z,16.40
2022-08-27T01:43:32.795Z,15.60
2022-08-27T01:53:37.973Z,16.42
2022-08-27T01:58:40.319Z,19.87
2022-08-27T02:03:43.059Z,13.25
2022-08-27T02:08:45.291Z,15.13
2022-08-27T02:13:47.601Z,15.97
2022-08-27T02:18:49.889Z,18.37
2022-08-27T02:23:52.424Z,17.23
2022-08-27T02:28:56.713Z,21.05
2022-08-27T02:34:00.891Z,16.98
2022-08-27T02:44:10.144Z,15.73
2022-08-27T02:49:13.474Z,19.25
2022-08-27T02:54:16.179Z,17.30
2022-08-27T02:59:19.426Z,16.80
2022-08-27T03:04:22.917Z,18.00
2022-08-27T03:09:25.634Z,16.83
2022-08-27T03:14:28.617Z,17.17
2022-08-27T03:24:34.502Z,14.80
2022-08-27T03:29:37.070Z,20.65
2022-08-27T03:34:39.444Z,18.23
2022-08-27T03:39:41.643Z,20.07
2022-08-27T03:44:44.000Z,22.47
2022-08-27T03:49:46.251Z,23.85
2022-08-27T03:54:48.594Z,20.57
2022-08-27T03:59:51.902Z,25.60
2022-08-27T04:04:57.940Z,16.60
2022-08-27T04:10:00.259Z,24.85
2022-08-27T04:15:02.818Z,21.77
2022-08-27T04:20:31.634Z,23.55
2022-08-27T04:25:29.639Z,22.67
2022-08-27T04:30:33.188Z,21.75
2022-08-27T04:35:35.651Z,22.67
2022-08-27T04:40:56.929Z,22.95
2022-08-27T04:45:59.278Z,20.05
2022-08-27T04:51:02.327Z,20.13
2022-08-27T04:56:06.515Z,18.35
2022-08-27T05:01:22.513Z,16.60
2022-08-27T05:06:25.221Z,15.68
2022-08-27T05:11:32.385Z,14.38
2022-08-27T05:16:37.969Z,19.75
2022-08-27T05:21:45.556Z,13.43
2022-08-27T05:26:48.456Z,13.23
2022-08-27T05:31:50.853Z,13.27
2022-08-27T05:36:54.149Z,18.13
2022-08-27T05:41:57.735Z,12.07
2022-08-27T05:47:00.554Z,14.05
2022-08-27T05:57:10.178Z,13.07
2022-08-27T06:02:13.310Z,14.07
2022-08-27T06:07:15.939Z,15.07
2022-08-27T06:12:18.444Z,12.27
2022-08-27T06:17:24.653Z,16.60
2022-08-27T06:22:27.508Z,11.45
2022-08-27T06:27:35.457Z,13.32
2022-08-27T06:32:59.260Z,15.88
2022-08-27T06:38:01.992Z,15.30
2022-08-27T06:43:04.906Z,14.10
2022-08-27T06:48:07.635Z,12.13
2022-08-27T06:53:11.717Z,12.13
2022-08-27T06:58:15.393Z,16.48
2022-08-27T07:03:17.649Z,12.07
2022-08-27T07:13:27.794Z,9.60
2022-08-27T07:18:37.696Z,8.80
2022-08-27T07:23:45.055Z,10.20
2022-08-27T07:28:50.225Z,9.48
2022-08-27T07:33:53.401Z,8.80
2022-08-27T07:38:59.149Z,9.05
2022-08-27T07:44:36.473Z,6.15
2022-08-27T07:49:39.690Z,8.40
2022-08-27T07:54:42.534Z,9.10
2022-08-27T07:59:45.404Z,5.38
2022-08-27T08:04:47.733Z,7.72
2022-08-27T08:09:50.018Z,9.63
2022-08-27T08:14:57.897Z,6.80
2022-08-27T08:20:19.914Z,6.80
2022-08-27T08:25:23.314Z,7.30
2022-08-27T08:30:26.818Z,6.78
2022-08-27T08:35:40.575Z,6.45
2022-08-27T08:40:52.100Z,11.40
2022-08-27T08:45:58.623Z,14.43
2022-08-27T08:51:13.538Z,21.20
2022-08-27T08:56:56.811Z,9.57
2022-08-27T09:01:59.672Z,7.18
2022-08-27T09:08:09.715Z,7.30
2022-08-27T09:13:32.599Z,5.57
2022-08-27T09:18:41.232Z,8.18
2022-08-27T09:24:01.234Z,8.40
2022-08-27T09:29:19.293Z,6.18
2022-08-27T09:34:36.448Z,8.02
2022-08-27T09:40:06.492Z,7.20
2022-08-27T09:45:28.411Z,5.80
2022-08-27T09:51:02.040Z,5.40
2022-08-27T09:56:34.444Z,7.18
2022-08-27T10:02:15.767Z,7.15
2022-08-27T10:07:56.123Z,5.90
2022-08-27T10:13:10.250Z,10.32
2022-08-27T10:18:27.011Z,5.60
2022-08-27T10:24:22.827Z,7.32
2022-08-27T10:29:45.269Z,6.93
2022-08-27T10:35:18.843Z,6.97
2022-08-27T10:41:05.913Z,8.10
2022-08-27T10:46:34.756Z,11.45
2022-08-27T10:51:44.146Z,9.90
2022-08-27T10:57:31.427Z,9.50
2022-08-27T11:02:43.817Z,5.40
2022-08-27T11:07:53.498Z,8.52
2022-08-27T11:13:04.587Z,7.65
2022-08-27T11:18:40.932Z,8.98
2022-08-27T11:24:02.686Z,5.15
2022-08-27T11:29:38.644Z,6.43
2022-08-27T11:35:15.496Z,9.25
2022-08-27T11:40:41.231Z,9.43
2022-08-27T11:46:01.381Z,10.77
2022-08-27T11:56:56.827Z,12.68
2022-08-27T12:02:41.832Z,9.30
2022-08-27T12:08:28.498Z,10.73
2022-08-27T12:13:38.473Z,8.93
2022-08-27T12:19:13.926Z,11.35
2022-08-27T12:24:37.587Z,9.48
2022-08-27T12:29:54.738Z,10.25
2022-08-27T12:35:18.713Z,13.07
2022-08-27T12:46:26.420Z,12.95
2022-08-27T12:51:38.015Z,11.18
2022-08-27T12:57:40.392Z,10.95
2022-08-27T13:03:07.676Z,15.10
2022-08-27T13:08:32.891Z,11.05
2022-08-27T13:13:39.925Z,10.82
2022-08-27T13:18:57.049Z,11.98
2022-08-27T13:24:38.965Z,13.45
2022-08-27T13:29:45.199Z,11.95
2022-08-27T13:34:48.188Z,14.82
2022-08-27T13:39:55.345Z,9.40
2022-08-27T13:45:04.947Z,9.90
2022-08-27T13:51:03.990Z,11.80
2022-08-27T13:56:11.990Z,9.00
2022-08-27T14:01:30.344Z,9.50
2022-08-27T14:06:45.982Z,11.55
2022-08-27T14:11:57.526Z,9.43
2022-08-27T14:17:02.989Z,8.85
2022-08-27T14:22:07.169Z,10.02
2022-08-27T14:27:20.235Z,9.13
2022-08-27T14:32:25.964Z,11.23
2022-08-27T14:37:39.635Z,9.52
2022-08-27T14:42:50.327Z,8.70
2022-08-27T14:48:33.331Z,10.52
2022-08-27T14:53:35.791Z,10.95
2022-08-27T14:58:38.206Z,10.90
2022-08-27T15:03:50.968Z,9.77
2022-08-27T15:09:02.147Z,9.07
2022-08-27T15:14:11.304Z,9.37
2022-08-27T15:19:27.272Z,10.82
2022-08-27T15:24:42.340Z,10.60
2022-08-27T15:29:49.021Z,10.68
2022-08-27T15:34:56.350Z,10.82
2022-08-27T15:39:59.024Z,10.82
2022-08-27T15:45:06.967Z,10.82
2022-08-27T15:50:34.708Z,11.52
2022-08-27T15:55:41.525Z,10.73
2022-08-27T16:00:46.530Z,11.07
2022-08-27T16:05:48.898Z,10.85
2022-08-27T16:10:58.420Z,11.48
2022-08-27T16:21:13.819Z,10.80
2022-08-27T16:26:21.702Z,13.88
2022-08-27T16:31:32.599Z,13.07
2022-08-27T16:36:39.271Z,12.30
2022-08-27T16:41:54.063Z,12.13
2022-08-27T16:46:56.758Z,12.70
2022-08-27T16:52:03.839Z,13.57
2022-08-27T16:57:16.838Z,13.68
2022-08-27T17:02:30.079Z,13.40
2022-08-27T17:07:36.628Z,12.40
2022-08-27T17:12:56.432Z,11.63
2022-08-27T17:18:08.628Z,10.63
2022-08-27T17:23:28.938Z,11.32
2022-08-27T17:28:39.080Z,13.32
2022-08-27T17:39:17.282Z,12.70
2022-08-27T17:45:12.694Z,15.05
2022-08-27T17:50:41.874Z,19.25
2022-08-27T17:55:52.608Z,14.35
2022-08-27T18:00:57.129Z,14.05
2022-08-27T18:06:05.062Z,15.75
2022-08-27T18:11:11.291Z,14.75
2022-08-27T18:16:16.985Z,14.88
2022-08-27T18:21:25.642Z,15.93
2022-08-27T18:26:35.575Z,16.52
2022-08-27T18:31:46.287Z,13.38
2022-08-27T18:41:59.279Z,14.63
2022-08-27T18:47:04.091Z,16.40
2022-08-27T18:52:40.167Z,18.40
2022-08-27T18:58:01.194Z,19.15
2022-08-27T19:03:32.136Z,17.00
2022-08-27T19:08:40.409Z,19.33
2022-08-27T19:14:07.370Z,15.18
2022-08-27T19:19:12.952Z,18.48
2022-08-27T19:24:15.823Z,20.33
2022-08-27T19:29:23.349Z,19.85
2022-08-27T19:34:32.249Z,18.77
2022-08-27T19:39:36.496Z,15.98
2022-08-27T19:44:39.272Z,19.10
2022-08-27T19:49:45.126Z,18.38
2022-08-27T19:55:10.214Z,20.00
2022-08-27T20:00:11.669Z,14.32
2022-08-27T20:05:18.743Z,13.48
2022-08-27T20:10:31.486Z,13.85
2022-08-27T20:15:40.799Z,17.15
2022-08-27T20:20:43.017Z,14.55
2022-08-27T20:25:46.440Z,14.10
2022-08-27T20:30:50.501Z,13.32
2022-08-27T20:35:55.825Z,18.45
2022-08-27T20:40:59.111Z,16.08
2022-08-27T20:46:02.179Z,21.20
2022-08-27T20:51:05.183Z,16.25
2022-08-27T20:56:11.852Z,17.55
2022-08-27T21:02:01.725Z,15.82
2022-08-27T21:07:10.856Z,16.08
2022-08-27T21:12:35.264Z,18.55
2022-08-27T21:17:48.813Z,19.77
2022-08-27T21:34:40.414Z,17.67
2022-08-27T21:40:09.263Z,21.20
2022-08-27T21:45:39.489Z,19.58
2022-08-27T21:51:06.587Z,16.70
2022-08-27T21:56:11.104Z,16.98
2022-08-27T22:01:15.468Z,19.17
2022-08-27T22:06:18.921Z,15.55
2022-08-27T22:11:24.129Z,17.95
2022-08-27T22:16:26.917Z,20.40
2022-08-27T22:21:29.178Z,18.20
2022-08-27T22:26:31.755Z,19.38
2022-08-27T22:31:38.871Z,19.25
2022-08-27T22:37:00.031Z,22.08
2022-08-27T22:42:08.933Z,18.52
2022-08-27T22:47:15.117Z,20.48
2022-08-27T22:52:28.141Z,19.95
2022-08-27T22:57:32.592Z,18.85
2022-08-27T23:02:35.958Z,20.88
2022-08-27T23:07:38.604Z,22.20
2022-08-27T23:12:40.910Z,20.80
2022-08-27T23:17:47.491Z,18.30
2022-08-27T23:22:50.416Z,21.58
2022-08-27T23:32:55.557Z,23.65
2022-08-27T23:37:58.333Z,17.63
2022-08-27T23:43:04.240Z,19.50
2022-08-27T23:48:06.497Z,17.67
2022-08-27T23:53:09.244Z,18.38
2022-08-27T23:58:12.518Z,22.70
